sensor_id;sensor_type;location;lat;lon;timestamp;pressure;altitude;pressure_sealevel;temperature;humidity
54806;BME280;62866;55.776;37.496;2023-04-25T00:01:35;99615.00;;;13.74;43.45
54806;BME280;62866;55.776;37.496;2023-04-25T00:04:02;99636.47;;;13.87;43.27
54806;BME280;62866;55.776;37.496;2023-04-25T00:06:28;99648.06;;;13.88;43.48
54806;BME280;62866;55.776;37.496;2023-04-25T00:08:55;99652.16;;;13.90;43.39
54806;BME280;62866;55.776;37.496;2023-04-25T00:11:22;99649.72;;;13.89;43.98
54806;BME280;62866;55.776;37.496;2023-04-25T00:13:47;99649.91;;;13.87;44.11
54806;BME280;62866;55.776;37.496;2023-04-25T00:16:14;99651.81;;;13.80;44.10
54806;BME280;62866;55.776;37.496;2023-04-25T00:18:41;99647.47;;;13.79;44.17
54806;BME280;62866;55.776;37.496;2023-04-25T00:21:07;99654.50;;;13.80;44.35
54806;BME280;62866;55.776;37.496;2023-04-25T00:23:33;99650.75;;;13.81;44.58
54806;BME280;62866;55.776;37.496;2023-04-25T00:26:00;99644.78;;;13.79;44.20
54806;BME280;62866;55.776;37.496;2023-04-25T00:28:26;99652.19;;;13.84;45.00
54806;BME280;62866;55.776;37.496;2023-04-25T00:30:52;99664.38;;;13.86;44.55
54806;BME280;62866;55.776;37.496;2023-04-25T00:33:17;99660.88;;;13.86;44.86
54806;BME280;62866;55.776;37.496;2023-04-25T00:35:43;99660.03;;;13.85;44.37
54806;BME280;62866;55.776;37.496;2023-04-25T00:38:08;99654.47;;;13.87;44.20
54806;BME280;62866;55.776;37.496;2023-04-25T00:40:34;99661.25;;;13.96;44.25
54806;BME280;62866;55.776;37.496;2023-04-25T00:43:00;99639.38;;;13.86;44.29
54806;BME280;62866;55.776;37.496;2023-04-25T00:45:29;99666.97;;;14.06;44.68
54806;BME280;62866;55.776;37.496;2023-04-25T00:47:55;99647.72;;;14.09;44.22
54806;BME280;62866;55.776;37.496;2023-04-25T00:50:21;99659.94;;;14.12;44.01
54806;BME280;62866;55.776;37.496;2023-04-25T00:52:47;99655.34;;;14.19;43.99
54806;BME280;62866;55.776;37.496;2023-04-25T00:55:13;99653.66;;;14.24;44.27
54806;BME280;62866;55.776;37.496;2023-04-25T00:57:39;99648.25;;;14.24;44.46
54806;BME280;62866;55.776;37.496;2023-04-25T01:00:06;99651.97;;;14.30;44.50
54806;BME280;62866;55.776;37.496;2023-04-25T01:02:35;99644.72;;;14.30;44.70
54806;BME280;62866;55.776;37.496;2023-04-25T01:05:01;99633.38;;;14.28;44.88
54806;BME280;62866;55.776;37.496;2023-04-25T01:07:27;99646.16;;;14.33;45.28
54806;BME280;62866;55.776;37.496;2023-04-25T01:09:53;99653.59;;;14.37;44.44
54806;BME280;62866;55.776;37.496;2023-04-25T01:12:18;99646.16;;;14.33;44.38
54806;BME280;62866;55.776;37.496;2023-04-25T01:14:45;99641.44;;;14.28;44.44
54806;BME280;62866;55.776;37.496;2023-04-25T01:17:11;99641.44;;;14.28;44.77
54806;BME280;62866;55.776;37.496;2023-04-25T01:19:37;99636.88;;;14.29;44.94
54806;BME280;62866;55.776;37.496;2023-04-25T01:22:03;99635.66;;;14.25;44.91
54806;BME280;62866;55.776;37.496;2023-04-25T01:24:30;99637.28;;;14.26;44.83
54806;BME280;62866;55.776;37.496;2023-04-25T01:26:56;99643.66;;;14.31;44.42
54806;BME280;62866;55.776;37.496;2023-04-25T01:29:23;99640.75;;;14.33;44.82
54806;BME280;62866;55.776;37.496;2023-04-25T01:31:51;99576.53;;;13.87;44.71
54806;BME280;62866;55.776;37.496;2023-04-25T01:34:17;99638.94;;;14.27;44.37
54806;BME280;62866;55.776;37.496;2023-04-25T01:36:42;99642.03;;;14.30;45.20
54806;BME280;62866;55.776;37.496;2023-04-25T01:39:09;99633.16;;;14.30;45.27
54806;BME280;62866;55.776;37.496;2023-04-25T01:41:34;99639.56;;;14.29;45.46
54806;BME280;62866;55.776;37.496;2023-04-25T01:44:00;99635.66;;;14.25;45.33
54806;BME280;62866;55.776;37.496;2023-04-25T01:46:27;99632.78;;;14.20;45.96
54806;BME280;62866;55.776;37.496;2023-04-25T01:48:53;99630.97;;;14.14;45.59
54806;BME280;62866;55.776;37.496;2023-04-25T01:51:19;99637.19;;;14.14;46.39
54806;BME280;62866;55.776;37.496;2023-04-25T01:53:44;99636.78;;;14.11;46.77
54806;BME280;62866;55.776;37.496;2023-04-25T01:56:10;99629.13;;;14.07;46.19
54806;BME280;62866;55.776;37.496;2023-04-25T01:58:35;99618.19;;;14.02;46.51
54806;BME280;62866;55.776;37.496;2023-04-25T02:01:01;99632.84;;;14.13;46.79
54806;BME280;62866;55.776;37.496;2023-04-25T02:03:27;99629.69;;;14.16;46.66
54806;BME280;62866;55.776;37.496;2023-04-25T02:05:52;99626.78;;;14.18;46.83
54806;BME280;62866;55.776;37.496;2023-04-25T02:08:18;99615.22;;;14.17;47.13
54806;BME280;62866;55.776;37.496;2023-04-25T02:10:44;99625.75;;;14.19;47.07
54806;BME280;62866;55.776;37.496;2023-04-25T02:13:09;99625.72;;;14.25;47.22
54806;BME280;62866;55.776;37.496;2023-04-25T02:15:35;99621.78;;;14.28;47.19
54806;BME280;62866;55.776;37.496;2023-04-25T02:18:01;99619.72;;;14.30;47.06
54806;BME280;62866;55.776;37.496;2023-04-25T02:20:28;99617.59;;;14.32;47.60
54806;BME280;62866;55.776;37.496;2023-04-25T02:22:53;99604.34;;;14.37;47.42
54806;BME280;62866;55.776;37.496;2023-04-25T02:25:20;99613.06;;;14.39;47.86
54806;BME280;62866;55.776;37.496;2023-04-25T02:27:47;99605.38;;;14.36;47.28
54806;BME280;62866;55.776;37.496;2023-04-25T02:30:13;99612.41;;;14.37;47.77
54806;BME280;62866;55.776;37.496;2023-04-25T02:32:39;99621.72;;;14.41;47.57
54806;BME280;62866;55.776;37.496;2023-04-25T02:35:05;99621.31;;;14.37;47.59
54806;BME280;62866;55.776;37.496;2023-04-25T02:37:32;99616.53;;;14.39;47.65
54806;BME280;62866;55.776;37.496;2023-04-25T02:39:58;99610.53;;;14.37;47.27
54806;BME280;62866;55.776;37.496;2023-04-25T02:42:23;99612.41;;;14.43;47.30
54806;BME280;62866;55.776;37.496;2023-04-25T02:44:49;99621.44;;;14.49;47.13
54806;BME280;62866;55.776;37.496;2023-04-25T02:47:15;99616.84;;;14.56;47.08
54806;BME280;62866;55.776;37.496;2023-04-25T02:49:40;99619.94;;;14.60;46.88
54806;BME280;62866;55.776;37.496;2023-04-25T02:52:06;99629.22;;;14.64;46.38
54806;BME280;62866;55.776;37.496;2023-04-25T02:54:31;99615.38;;;14.60;46.46
54806;BME280;62866;55.776;37.496;2023-04-25T02:56:57;99629.09;;;14.77;47.12
54806;BME280;62866;55.776;37.496;2023-04-25T02:59:22;99626.81;;;14.80;47.06
54806;BME280;62866;55.776;37.496;2023-04-25T03:01:48;99633.19;;;14.86;46.73
54806;BME280;62866;55.776;37.496;2023-04-25T03:04:13;99629.81;;;14.91;46.65
54806;BME280;62866;55.776;37.496;2023-04-25T03:06:39;99612.69;;;14.85;46.85
54806;BME280;62866;55.776;37.496;2023-04-25T03:09:05;99622.88;;;15.01;46.59
54806;BME280;62866;55.776;37.496;2023-04-25T03:11:30;99614.31;;;15.11;46.32
54806;BME280;62866;55.776;37.496;2023-04-25T03:13:56;99614.16;;;15.24;46.40
54806;BME280;62866;55.776;37.496;2023-04-25T03:16:22;99605.44;;;15.29;45.75
54806;BME280;62866;55.776;37.496;2023-04-25T03:18:47;99598.53;;;15.33;45.76
54806;BME280;62866;55.776;37.496;2023-04-25T03:21:14;99591.28;;;15.33;45.53
54806;BME280;62866;55.776;37.496;2023-04-25T03:23:40;99592.19;;;15.45;44.98
54806;BME280;62866;55.776;37.496;2023-04-25T03:26:05;99590.88;;;15.54;44.64
54806;BME280;62866;55.776;37.496;2023-04-25T03:28:31;99600.88;;;15.66;44.63
54806;BME280;62866;55.776;37.496;2023-04-25T03:30:57;99606.56;;;15.76;43.94
54806;BME280;62866;55.776;37.496;2023-04-25T03:33:22;99609.44;;;15.81;44.15
54806;BME280;62866;55.776;37.496;2023-04-25T03:35:48;99614.97;;;15.68;44.02
54806;BME280;62866;55.776;37.496;2023-04-25T03:38:15;99629.78;;;15.59;44.27
54806;BME280;62866;55.776;37.496;2023-04-25T03:40:40;99615.97;;;15.48;44.78
54806;BME280;62866;55.776;37.496;2023-04-25T03:43:06;99622.38;;;15.54;44.49
54806;BME280;62866;55.776;37.496;2023-04-25T03:45:32;99624.03;;;15.55;44.16
54806;BME280;62866;55.776;37.496;2023-04-25T03:47:58;99617.00;;;15.54;44.41
54806;BME280;62866;55.776;37.496;2023-04-25T03:50:23;99619.88;;;15.52;44.64
54806;BME280;62866;55.776;37.496;2023-04-25T03:52:49;99608.16;;;15.47;44.71
54806;BME280;62866;55.776;37.496;2023-04-25T03:55:15;99619.47;;;15.55;44.50
54806;BME280;62866;55.776;37.496;2023-04-25T03:57:40;99608.72;;;15.49;44.63
54806;BME280;62866;55.776;37.496;2023-04-25T04:00:09;99597.97;;;15.31;44.83
54806;BME280;62866;55.776;37.496;2023-04-25T04:02:35;99605.44;;;15.29;45.61
54806;BME280;62866;55.776;37.496;2023-04-25T04:05:03;99609.78;;;15.30;45.35
54806;BME280;62866;55.776;37.496;2023-04-25T04:07:29;99612.47;;;15.30;45.12
54806;BME280;62866;55.776;37.496;2023-04-25T04:09:54;99597.78;;;15.26;45.64
54806;BME280;62866;55.776;37.496;2023-04-25T04:12:20;99602.81;;;15.22;45.86
54806;BME280;62866;55.776;37.496;2023-04-25T04:14:45;99605.25;;;15.24;46.12
54806;BME280;62866;55.776;37.496;2023-04-25T04:17:11;99604.81;;;15.27;46.15
54806;BME280;62866;55.776;37.496;2023-04-25T04:19:37;99600.88;;;15.29;45.54
54806;BME280;62866;55.776;37.496;2023-04-25T04:22:03;99605.78;;;15.32;45.36
54806;BME280;62866;55.776;37.496;2023-04-25T04:24:28;99615.53;;;15.33;45.56
54806;BME280;62866;55.776;37.496;2023-04-25T04:26:54;99605.22;;;15.30;46.12
54806;BME280;62866;55.776;37.496;2023-04-25T04:29:20;99611.78;;;15.34;46.19
54806;BME280;62866;55.776;37.496;2023-04-25T04:31:49;99614.25;;;15.36;46.25
54806;BME280;62866;55.776;37.496;2023-04-25T04:34:16;99607.00;;;15.36;46.07
54806;BME280;62866;55.776;37.496;2023-04-25T04:36:42;99613.56;;;15.40;45.85
54806;BME280;62866;55.776;37.496;2023-04-25T04:39:07;99614.34;;;15.47;45.67
54806;BME280;62866;55.776;37.496;2023-04-25T04:41:34;99605.59;;;15.52;45.90
54806;BME280;62866;55.776;37.496;2023-04-25T04:44:00;99607.34;;;15.65;45.53
54806;BME280;62866;55.776;37.496;2023-04-25T04:46:26;99616.19;;;15.72;45.33
54806;BME280;62866;55.776;37.496;2023-04-25T04:48:53;99611.44;;;15.67;45.41
54806;BME280;62866;55.776;37.496;2023-04-25T04:51:19;99605.91;;;15.62;45.73
54806;BME280;62866;55.776;37.496;2023-04-25T04:53:45;99605.16;;;15.73;45.99
54806;BME280;62866;55.776;37.496;2023-04-25T04:56:11;99616.44;;;15.82;46.54
54806;BME280;62866;55.776;37.496;2023-04-25T04:58:37;99605.91;;;15.80;46.35
54806;BME280;62866;55.776;37.496;2023-04-25T05:01:02;99610.97;;;15.88;46.54
54806;BME280;62866;55.776;37.496;2023-04-25T05:03:28;99610.19;;;16.00;46.31
54806;BME280;62866;55.776;37.496;2023-04-25T05:05:54;99594.84;;;16.00;46.38
54806;BME280;62866;55.776;37.496;2023-04-25T05:08:19;99601.19;;;16.36;46.36
54806;BME280;62866;55.776;37.496;2023-04-25T05:10:45;99601.13;;;17.70;43.94
54806;BME280;62866;55.776;37.496;2023-04-25T05:13:10;99598.47;;;18.44;42.63
54806;BME280;62866;55.776;37.496;2023-04-25T05:15:36;99602.03;;;20.69;38.85
54806;BME280;62866;55.776;37.496;2023-04-25T05:18:01;99598.84;;;23.30;34.99
54806;BME280;62866;55.776;37.496;2023-04-25T05:20:27;99602.25;;;25.08;31.76
54806;BME280;62866;55.776;37.496;2023-04-25T05:22:52;99601.00;;;26.71;29.00
54806;BME280;62866;55.776;37.496;2023-04-25T05:25:18;99606.50;;;27.90;27.78
54806;BME280;62866;55.776;37.496;2023-04-25T05:27:44;99609.47;;;28.44;26.64
54806;BME280;62866;55.776;37.496;2023-04-25T05:30:09;99607.00;;;26.92;27.93
54806;BME280;62866;55.776;37.496;2023-04-25T05:32:35;99599.91;;;25.49;29.05
54806;BME280;62866;55.776;37.496;2023-04-25T05:35:01;99614.41;;;25.21;29.19
54806;BME280;62866;55.776;37.496;2023-04-25T05:37:27;99597.91;;;24.29;30.22
54806;BME280;62866;55.776;37.496;2023-04-25T05:39:53;99605.38;;;23.19;31.73
54806;BME280;62866;55.776;37.496;2023-04-25T05:42:18;99609.75;;;22.44;32.79
54806;BME280;62866;55.776;37.496;2023-04-25T05:44:44;99601.03;;;22.52;32.62
54806;BME280;62866;55.776;37.496;2023-04-25T05:47:10;99611.66;;;22.48;33.26
54806;BME280;62866;55.776;37.496;2023-04-25T05:49:35;99598.84;;;22.69;32.90
54806;BME280;62866;55.776;37.496;2023-04-25T05:52:01;99595.22;;;21.98;34.17
54806;BME280;62866;55.776;37.496;2023-04-25T05:54:26;99595.00;;;21.52;34.76
54806;BME280;62866;55.776;37.496;2023-04-25T05:56:52;99593.59;;;21.44;34.93
54806;BME280;62866;55.776;37.496;2023-04-25T05:59:17;99597.97;;;22.18;33.38
54806;BME280;62866;55.776;37.496;2023-04-25T06:01:43;99590.41;;;23.16;32.00
54806;BME280;62866;55.776;37.496;2023-04-25T06:04:08;99582.06;;;23.72;31.73
54806;BME280;62866;55.776;37.496;2023-04-25T06:06:34;99583.88;;;24.80;30.45
54806;BME280;62866;55.776;37.496;2023-04-25T06:09:00;99579.53;;;24.74;30.35
54806;BME280;62866;55.776;37.496;2023-04-25T06:11:25;99572.31;;;24.15;30.78
54806;BME280;62866;55.776;37.496;2023-04-25T06:13:51;99565.81;;;23.52;31.67
54806;BME280;62866;55.776;37.496;2023-04-25T06:16:16;99577.28;;;23.33;31.67
54806;BME280;62866;55.776;37.496;2023-04-25T06:18:42;99579.53;;;23.06;32.45
54806;BME280;62866;55.776;37.496;2023-04-25T06:21:07;99556.34;;;22.93;32.92
54806;BME280;62866;55.776;37.496;2023-04-25T06:23:35;99570.50;;;23.26;32.52
54806;BME280;62866;55.776;37.496;2023-04-25T06:26:01;99559.06;;;23.03;32.64
54806;BME280;62866;55.776;37.496;2023-04-25T06:28:26;99559.06;;;23.03;32.56
54806;BME280;62866;55.776;37.496;2023-04-25T06:30:52;99559.06;;;23.08;32.38
54806;BME280;62866;55.776;37.496;2023-04-25T06:33:17;99559.59;;;23.16;32.52
54806;BME280;62866;55.776;37.496;2023-04-25T06:35:43;99548.97;;;23.09;32.45
54806;BME280;62866;55.776;37.496;2023-04-25T06:38:08;99547.59;;;23.12;32.36
54806;BME280;62866;55.776;37.496;2023-04-25T06:40:34;99552.78;;;23.03;32.20
54806;BME280;62866;55.776;37.496;2023-04-25T06:42:59;99551.19;;;22.92;32.40
54806;BME280;62866;55.776;37.496;2023-04-25T06:45:25;99547.94;;;22.75;32.54
54806;BME280;62866;55.776;37.496;2023-04-25T06:47:51;99559.91;;;22.58;32.57
54806;BME280;62866;55.776;37.496;2023-04-25T06:50:16;99559.63;;;22.50;32.83
54806;BME280;62866;55.776;37.496;2023-04-25T06:52:42;99560.19;;;22.42;32.80
54806;BME280;62866;55.776;37.496;2023-04-25T06:55:07;99553.91;;;22.56;31.90
54806;BME280;62866;55.776;37.496;2023-04-25T06:57:33;99556.91;;;22.65;32.42
54806;BME280;62866;55.776;37.496;2023-04-25T06:59:59;99548.47;;;22.82;32.52
54806;BME280;62866;55.776;37.496;2023-04-25T07:02:24;99550.38;;;22.86;32.42
54806;BME280;62866;55.776;37.496;2023-04-25T07:04:50;99534.03;;;22.91;32.00
54806;BME280;62866;55.776;37.496;2023-04-25T07:07:15;99552.75;;;23.18;31.62
54806;BME280;62866;55.776;37.496;2023-04-25T07:09:42;99552.66;;;23.54;31.09
54806;BME280;62866;55.776;37.496;2023-04-25T07:12:07;99552.63;;;24.13;29.77
54806;BME280;62866;55.776;37.496;2023-04-25T07:14:33;99552.78;;;23.93;29.62
54806;BME280;62866;55.776;37.496;2023-04-25T07:16:58;99555.66;;;23.47;29.52
54806;BME280;62866;55.776;37.496;2023-04-25T07:19:24;99552.53;;;22.99;30.19
54806;BME280;62866;55.776;37.496;2023-04-25T07:21:52;99548.47;;;22.87;31.07
54806;BME280;62866;55.776;37.496;2023-04-25T07:24:17;99545.44;;;23.03;30.91
54806;BME280;62866;55.776;37.496;2023-04-25T07:26:43;99541.16;;;23.67;29.21
54806;BME280;62866;55.776;37.496;2023-04-25T07:29:09;99542.16;;;24.35;27.86
54806;BME280;62866;55.776;37.496;2023-04-25T07:31:35;99551.44;;;25.02;26.46
54806;BME280;62866;55.776;37.496;2023-04-25T07:34:01;99533.84;;;25.32;26.38
54806;BME280;62866;55.776;37.496;2023-04-25T07:36:26;99541.59;;;24.67;28.26
54806;BME280;62866;55.776;37.496;2023-04-25T07:38:52;99538.41;;;24.55;27.60
54806;BME280;62866;55.776;37.496;2023-04-25T07:41:17;99539.03;;;24.47;28.17
54806;BME280;62866;55.776;37.496;2023-04-25T07:43:43;99550.25;;;24.45;28.50
54806;BME280;62866;55.776;37.496;2023-04-25T07:46:09;99540.63;;;24.14;28.77
54806;BME280;62866;55.776;37.496;2023-04-25T07:48:34;99536.69;;;23.86;29.21
54806;BME280;62866;55.776;37.496;2023-04-25T07:51:00;99537.50;;;23.92;29.48
54806;BME280;62866;55.776;37.496;2023-04-25T07:53:25;99543.41;;;24.04;29.31
54806;BME280;62866;55.776;37.496;2023-04-25T07:55:51;99531.31;;;24.15;28.39
54806;BME280;62866;55.776;37.496;2023-04-25T07:58:16;99547.91;;;24.34;27.97
54806;BME280;62866;55.776;37.496;2023-04-25T08:00:46;99535.47;;;24.46;27.90
54806;BME280;62866;55.776;37.496;2023-04-25T08:03:12;99546.72;;;24.01;29.05
54806;BME280;62866;55.776;37.496;2023-04-25T08:05:38;99535.19;;;23.55;29.53
54806;BME280;62866;55.776;37.496;2023-04-25T08:08:03;99533.03;;;23.57;30.42
54806;BME280;62866;55.776;37.496;2023-04-25T08:10:32;99539.47;;;24.20;30.13
54806;BME280;62866;55.776;37.496;2023-04-25T08:12:58;99539.38;;;25.51;28.20
54806;BME280;62866;55.776;37.496;2023-04-25T08:15:24;99535.13;;;26.90;26.59
54806;BME280;62866;55.776;37.496;2023-04-25T08:17:50;99542.41;;;27.95;25.71
54806;BME280;62866;55.776;37.496;2023-04-25T08:20:16;99522.47;;;27.48;25.91
54806;BME280;62866;55.776;37.496;2023-04-25T08:22:42;99543.09;;;25.36;27.26
54806;BME280;62866;55.776;37.496;2023-04-25T08:25:08;99541.16;;;25.84;27.85
54806;BME280;62866;55.776;37.496;2023-04-25T08:27:33;99544.63;;;26.46;27.69
54806;BME280;62866;55.776;37.496;2023-04-25T08:29:59;99535.78;;;25.31;28.73
54806;BME280;62866;55.776;37.496;2023-04-25T08:32:24;99534.88;;;24.10;30.10
54806;BME280;62866;55.776;37.496;2023-04-25T08:34:50;99529.81;;;23.29;31.37
54806;BME280;62866;55.776;37.496;2023-04-25T08:37:19;99525.28;;;22.44;32.41
54806;BME280;62866;55.776;37.496;2023-04-25T08:39:45;99544.09;;;22.65;32.61
54806;BME280;62866;55.776;37.496;2023-04-25T08:42:14;99540.81;;;22.63;32.69
54806;BME280;62866;55.776;37.496;2023-04-25T08:44:40;99534.00;;;22.86;32.50
54806;BME280;62866;55.776;37.496;2023-04-25T08:47:06;99526.38;;;22.98;32.38
54806;BME280;62866;55.776;37.496;2023-04-25T08:49:32;99523.34;;;23.05;32.26
54806;BME280;62866;55.776;37.496;2023-04-25T08:52:00;99514.78;;;23.42;31.54
54806;BME280;62866;55.776;37.496;2023-04-25T08:54:27;99511.00;;;23.92;30.97
54806;BME280;62866;55.776;37.496;2023-04-25T08:56:54;99517.28;;;23.88;31.46
54806;BME280;62866;55.776;37.496;2023-04-25T08:59:23;99507.84;;;24.14;30.94
54806;BME280;62866;55.776;37.496;2023-04-25T09:01:49;99523.31;;;24.29;30.72
54806;BME280;62866;55.776;37.496;2023-04-25T09:04:15;99510.13;;;23.97;30.68
54806;BME280;62866;55.776;37.496;2023-04-25T09:09:51;99487.13;;;23.64;30.87
54806;BME280;62866;55.776;37.496;2023-04-25T09:12:19;99498.03;;;22.89;30.64
54806;BME280;62866;55.776;37.496;2023-04-25T09:15:05;99499.94;;;22.28;30.97
54806;BME280;62866;55.776;37.496;2023-04-25T09:17:31;99504.47;;;21.77;31.22
54806;BME280;62866;55.776;37.496;2023-04-25T09:20:08;99503.09;;;21.59;31.27
54806;BME280;62866;55.776;37.496;2023-04-25T09:22:36;99501.66;;;21.41;31.65
54806;BME280;62866;55.776;37.496;2023-04-25T09:25:03;99487.66;;;21.17;32.07
54806;BME280;62866;55.776;37.496;2023-04-25T09:27:29;99480.81;;;21.10;32.42
54806;BME280;62866;55.776;37.496;2023-04-25T09:29:59;99481.97;;;21.19;32.84
54806;BME280;62866;55.776;37.496;2023-04-25T09:32:27;99483.41;;;21.37;32.63
54806;BME280;62866;55.776;37.496;2023-04-25T09:34:57;99484.75;;;21.29;32.72
54806;BME280;62866;55.776;37.496;2023-04-25T09:37:24;99480.81;;;21.10;32.64
54806;BME280;62866;55.776;37.496;2023-04-25T09:39:52;99477.19;;;20.89;32.71
54806;BME280;62866;55.776;37.496;2023-04-25T09:42:22;99481.88;;;20.99;32.77
54806;BME280;62866;55.776;37.496;2023-04-25T09:44:51;99461.38;;;20.81;32.56
54806;BME280;62866;55.776;37.496;2023-04-25T09:47:18;99491.28;;;20.81;33.26
54806;BME280;62866;55.776;37.496;2023-04-25T09:49:46;99487.72;;;20.80;32.88
54806;BME280;62866;55.776;37.496;2023-04-25T09:52:17;99477.63;;;20.71;33.46
54806;BME280;62866;55.776;37.496;2023-04-25T09:54:47;99475.19;;;20.74;33.51
54806;BME280;62866;55.776;37.496;2023-04-25T09:57:15;99476.44;;;21.04;33.20
54806;BME280;62866;55.776;37.496;2023-04-25T09:59:51;99466.22;;;21.21;33.28
54806;BME280;62866;55.776;37.496;2023-04-25T10:02:20;99468.41;;;21.24;33.45
54806;BME280;62866;55.776;37.496;2023-04-25T10:04:52;99470.28;;;21.18;33.50
54806;BME280;62866;55.776;37.496;2023-04-25T10:07:21;99465.81;;;21.02;33.47
54806;BME280;62866;55.776;37.496;2023-04-25T10:09:55;99463.59;;;20.89;33.38
54806;BME280;62866;55.776;37.496;2023-04-25T10:12:24;99460.22;;;20.67;33.85
54806;BME280;62866;55.776;37.496;2023-04-25T10:14:50;99460.91;;;20.52;34.26
54806;BME280;62866;55.776;37.496;2023-04-25T10:17:18;99461.47;;;20.54;34.45
54806;BME280;62866;55.776;37.496;2023-04-25T10:19:46;99454.41;;;20.53;34.59
54806;BME280;62866;55.776;37.496;2023-04-25T10:22:26;99434.94;;;20.66;34.26
54806;BME280;62866;55.776;37.496;2023-04-25T10:24:55;99441.19;;;20.67;34.55
54806;BME280;62866;55.776;37.496;2023-04-25T10:27:21;99433.88;;;20.72;34.39
54806;BME280;62866;55.776;37.496;2023-04-25T10:30:09;99435.03;;;20.81;33.79
54806;BME280;62866;55.776;37.496;2023-04-25T10:32:37;99444.53;;;20.84;34.26
54806;BME280;62866;55.776;37.496;2023-04-25T10:35:14;99439.41;;;20.88;34.28
54806;BME280;62866;55.776;37.496;2023-04-25T10:38:09;99434.84;;;20.98;34.03
54806;BME280;62866;55.776;37.496;2023-04-25T10:40:35;99423.66;;;20.95;34.27
54806;BME280;62866;55.776;37.496;2023-04-25T10:45:56;99418.53;;;20.98;33.53
54806;BME280;62866;55.776;37.496;2023-04-25T10:48:26;99406.16;;;20.70;33.08
54806;BME280;62866;55.776;37.496;2023-04-25T10:51:16;99423.44;;;20.49;32.81
54806;BME280;62866;55.776;37.496;2023-04-25T10:53:44;99430.56;;;20.28;33.16
54806;BME280;62866;55.776;37.496;2023-04-25T10:56:18;99416.91;;;20.13;33.39
54806;BME280;62866;55.776;37.496;2023-04-25T10:58:45;99397.81;;;20.03;33.48
54806;BME280;62866;55.776;37.496;2023-04-25T11:01:19;99409.50;;;20.08;33.57
54806;BME280;62866;55.776;37.496;2023-04-25T11:03:45;99398.78;;;20.24;33.50
54806;BME280;62866;55.776;37.496;2023-04-25T11:06:34;99399.75;;;20.44;33.14
54806;BME280;62866;55.776;37.496;2023-04-25T11:09:02;99400.50;;;20.35;32.45
54806;BME280;62866;55.776;37.496;2023-04-25T11:11:29;99396.03;;;20.19;32.77
54806;BME280;62866;55.776;37.496;2023-04-25T11:13:55;99393.88;;;20.21;32.89
54806;BME280;62866;55.776;37.496;2023-04-25T11:16:24;99391.97;;;20.16;33.00
54806;BME280;62866;55.776;37.496;2023-04-25T11:18:50;99389.56;;;19.88;33.83
54806;BME280;62866;55.776;37.496;2023-04-25T11:21:15;99382.72;;;19.80;34.00
54806;BME280;62866;55.776;37.496;2023-04-25T11:23:45;99365.09;;;19.83;33.95
54806;BME280;62866;55.776;37.496;2023-04-25T11:26:12;99370.31;;;19.89;34.15
54806;BME280;62866;55.776;37.496;2023-04-25T11:28:38;99375.25;;;19.97;34.02
54806;BME280;62866;55.776;37.496;2023-04-25T11:31:04;99379.84;;;19.97;33.33
54806;BME280;62866;55.776;37.496;2023-04-25T11:33:30;99359.56;;;20.04;33.11
54806;BME280;62866;55.776;37.496;2023-04-25T11:35:56;99354.78;;;20.22;32.99
54806;BME280;62866;55.776;37.496;2023-04-25T11:38:22;99367.38;;;20.33;32.56
54806;BME280;62866;55.776;37.496;2023-04-25T11:40:51;99363.22;;;20.25;32.64
54806;BME280;62866;55.776;37.496;2023-04-25T11:43:17;99350.94;;;20.13;33.08
54806;BME280;62866;55.776;37.496;2023-04-25T11:45:49;99361.28;;;20.16;33.23
54806;BME280;62866;55.776;37.496;2023-04-25T11:48:16;99361.16;;;20.00;34.32
54806;BME280;62866;55.776;37.496;2023-04-25T11:50:41;99357.59;;;19.95;34.61
54806;BME280;62866;55.776;37.496;2023-04-25T11:53:07;99337.34;;;20.07;34.58
54806;BME280;62866;55.776;37.496;2023-04-25T11:55:33;99324.03;;;20.06;34.77
54806;BME280;62866;55.776;37.496;2023-04-25T11:58:00;99338.75;;;20.20;34.89
54806;BME280;62866;55.776;37.496;2023-04-25T12:00:26;99332.63;;;20.35;34.46
54806;BME280;62866;55.776;37.496;2023-04-25T12:02:53;99329.09;;;20.34;34.58
54806;BME280;62866;55.776;37.496;2023-04-25T12:05:24;99332.53;;;20.20;34.53
54806;BME280;62866;55.776;37.496;2023-04-25T12:07:50;99319.34;;;19.96;34.84
54806;BME280;62866;55.776;37.496;2023-04-25T12:10:17;99326.34;;;19.87;34.89
54806;BME280;62866;55.776;37.496;2023-04-25T12:12:44;99328.13;;;19.72;35.24
54806;BME280;62866;55.776;37.496;2023-04-25T12:17:38;99311.72;;;19.56;36.13
54806;BME280;62866;55.776;37.496;2023-04-25T12:20:13;99303.69;;;19.40;35.83
54806;BME280;62866;55.776;37.496;2023-04-25T12:22:43;99298.28;;;19.45;36.29
54806;BME280;62866;55.776;37.496;2023-04-25T12:25:11;99297.34;;;19.56;36.21
54806;BME280;62866;55.776;37.496;2023-04-25T12:27:37;99299.09;;;19.72;36.23
54806;BME280;62866;55.776;37.496;2023-04-25T12:30:03;99287.66;;;19.65;36.31
54806;BME280;62866;55.776;37.496;2023-04-25T12:32:30;99279.53;;;19.65;36.46
54806;BME280;62866;55.776;37.496;2023-04-25T12:34:56;99280.09;;;19.72;36.57
54806;BME280;62866;55.776;37.496;2023-04-25T12:37:21;99268.41;;;19.66;36.40
54806;BME280;62866;55.776;37.496;2023-04-25T12:39:47;99277.66;;;19.70;36.52
54806;BME280;62866;55.776;37.496;2023-04-25T12:42:12;99278.38;;;19.56;37.08
54806;BME280;62866;55.776;37.496;2023-04-25T12:44:38;99255.84;;;19.55;36.88
54806;BME280;62866;55.776;37.496;2023-04-25T12:47:04;99263.00;;;19.66;36.84
54806;BME280;62866;55.776;37.496;2023-04-25T12:49:30;99265.91;;;19.60;37.07
54806;BME280;62866;55.776;37.496;2023-04-25T12:51:56;99261.84;;;19.57;37.24
54806;BME280;62866;55.776;37.496;2023-04-25T12:54:21;99259.63;;;19.54;37.56
54806;BME280;62866;55.776;37.496;2023-04-25T12:56:47;99251.47;;;19.49;37.24